sensor_id;sensor_type;location;lat;lon;timestamp;P1;durP1;ratioP1;P2;durP2;ratioP2
673;SDS011;319;48.764;9.174;2022-10-22T00:00:25;2.20;;;2.20;;
673;SDS011;319;48.764;9.174;2022-10-22T00:02:52;2.00;;;2.00;;
673;SDS011;319;48.764;9.174;2022-10-22T00:05:19;3.23;;;3.13;;
673;SDS011;319;48.764;9.174;2022-10-22T00:07:47;2.67;;;2.67;;
673;SDS011;319;48.764;9.174;2022-10-22T00:10:13;2.70;;;2.70;;
673;SDS011;319;48.764;9.174;2022-10-22T00:12:41;2.80;;;2.70;;
673;SDS011;319;48.764;9.174;2022-10-22T00:15:09;3.20;;;3.10;;
673;SDS011;319;48.764;9.174;2022-10-22T00:17:37;4.00;;;3.90;;
673;SDS011;319;48.764;9.174;2022-10-22T00:20:04;4.37;;;4.27;;
673;SDS011;319;48.764;9.174;2022-10-22T00:22:31;4.17;;;4.07;;
673;SDS011;319;48.764;9.174;2022-10-22T00:24:59;3.77;;;3.67;;
673;SDS011;319;48.764;9.174;2022-10-22T00:27:26;3.80;;;3.70;;
673;SDS011;319;48.764;9.174;2022-10-22T00:29:53;5.97;;;5.87;;
673;SDS011;319;48.764;9.174;2022-10-22T00:32:20;3.90;;;3.80;;
673;SDS011;319;48.764;9.174;2022-10-22T00:34:46;2.73;;;2.70;;
673;SDS011;319;48.764;9.174;2022-10-22T00:37:13;2.63;;;2.63;;
673;SDS011;319;48.764;9.174;2022-10-22T00:39:40;6.50;;;6.40;;
673;SDS011;319;48.764;9.174;2022-10-22T00:42:10;4.70;;;4.60;;
673;SDS011;319;48.764;9.174;2022-10-22T00:47:45;5.30;;;5.20;;
673;SDS011;319;48.764;9.174;2022-10-22T00:50:16;5.50;;;5.40;;
673;SDS011;319;48.764;9.174;2022-10-22T00:52:46;5.10;;;5.00;;
673;SDS011;319;48.764;9.174;2022-10-22T00:55:14;4.17;;;4.07;;
673;SDS011;319;48.764;9.174;2022-10-22T00:57:44;4.90;;;4.80;;
673;SDS011;319;48.764;9.174;2022-10-22T01:00:11;5.00;;;4.90;;
673;SDS011;319;48.764;9.174;2022-10-22T01:02:39;4.70;;;4.60;;
673;SDS011;319;48.764;9.174;2022-10-22T01:05:06;4.53;;;4.43;;
673;SDS011;319;48.764;9.174;2022-10-22T01:07:33;4.60;;;4.50;;
673;SDS011;319;48.764;9.174;2022-10-22T01:10:07;4.20;;;4.10;;
673;SDS011;319;48.764;9.174;2022-10-22T01:12:42;3.90;;;3.80;;
673;SDS011;319;48.764;9.174;2022-10-22T01:15:18;3.30;;;3.20;;
673;SDS011;319;48.764;9.174;2022-10-22T01:17:51;3.10;;;3.00;;
673;SDS011;319;48.764;9.174;2022-10-22T01:20:32;3.17;;;3.07;;
673;SDS011;319;48.764;9.174;2022-10-22T01:23:15;3.27;;;3.17;;
673;SDS011;319;48.764;9.174;2022-10-22T01:26:02;3.20;;;3.10;;
673;SDS011;319;48.764;9.174;2022-10-22T01:28:44;3.10;;;3.00;;
673;SDS011;319;48.764;9.174;2022-10-22T01:31:21;2.80;;;2.80;;
673;SDS011;319;48.764;9.174;2022-10-22T01:33:50;3.03;;;2.93;;
673;SDS011;319;48.764;9.174;2022-10-22T01:36:19;3.00;;;2.90;;
673;SDS011;319;48.764;9.174;2022-10-22T01:38:47;2.90;;;2.80;;
673;SDS011;319;48.764;9.174;2022-10-22T01:41:15;2.73;;;2.73;;
673;SDS011;319;48.764;9.174;2022-10-22T01:43:44;2.73;;;2.73;;
673;SDS011;319;48.764;9.174;2022-10-22T01:46:11;2.70;;;2.70;;
673;SDS011;319;48.764;9.174;2022-10-22T01:48:43;2.80;;;2.80;;
673;SDS011;319;48.764;9.174;2022-10-22T01:51:21;2.83;;;2.80;;
673;SDS011;319;48.764;9.174;2022-10-22T01:54:00;3.00;;;2.90;;
673;SDS011;319;48.764;9.174;2022-10-22T01:56:37;2.70;;;2.70;;
673;SDS011;319;48.764;9.174;2022-10-22T01:59:14;2.70;;;2.70;;
673;SDS011;319;48.764;9.174;2022-10-22T02:01:47;3.00;;;2.90;;
673;SDS011;319;48.764;9.174;2022-10-22T02:04:21;3.20;;;3.10;;
673;SDS011;319;48.764;9.174;2022-10-22T02:06:51;3.20;;;3.10;;
673;SDS011;319;48.764;9.174;2022-10-22T02:09:22;3.10;;;3.00;;
673;SDS011;319;48.764;9.174;2022-10-22T02:11:52;2.90;;;2.80;;
673;SDS011;319;48.764;9.174;2022-10-22T02:14:22;3.20;;;3.10;;
673;SDS011;319;48.764;9.174;2022-10-22T02:16:52;3.00;;;2.90;;
673;SDS011;319;48.764;9.174;2022-10-22T02:19:22;3.20;;;3.10;;
673;SDS011;319;48.764;9.174;2022-10-22T02:21:51;3.20;;;3.10;;
673;SDS011;319;48.764;9.174;2022-10-22T02:24:18;3.10;;;3.00;;
673;SDS011;319;48.764;9.174;2022-10-22T02:26:47;3.10;;;3.00;;
673;SDS011;319;48.764;9.174;2022-10-22T02:29:24;3.20;;;3.10;;
673;SDS011;319;48.764;9.174;2022-10-22T02:31:53;3.10;;;3.00;;
673;SDS011;319;48.764;9.174;2022-10-22T02:34:24;3.00;;;2.90;;
673;SDS011;319;48.764;9.174;2022-10-22T02:36:55;3.20;;;3.10;;
673;SDS011;319;48.764;9.174;2022-10-22T02:39:23;3.10;;;3.00;;
673;SDS011;319;48.764;9.174;2022-10-22T02:41:51;3.00;;;2.90;;
673;SDS011;319;48.764;9.174;2022-10-22T02:44:19;3.10;;;3.00;;
673;SDS011;319;48.764;9.174;2022-10-22T02:46:48;3.00;;;2.90;;
673;SDS011;319;48.764;9.174;2022-10-22T02:49:15;3.10;;;3.00;;
673;SDS011;319;48.764;9.174;2022-10-22T02:51:42;3.10;;;3.00;;
673;SDS011;319;48.764;9.174;2022-10-22T02:54:09;3.00;;;2.90;;
673;SDS011;319;48.764;9.174;2022-10-22T02:56:36;3.03;;;2.93;;
673;SDS011;319;48.764;9.174;2022-10-22T02:59:02;2.80;;;2.80;;
673;SDS011;319;48.764;9.174;2022-10-22T03:01:29;3.00;;;2.90;;
673;SDS011;319;48.764;9.174;2022-10-22T03:03:57;3.20;;;3.10;;
673;SDS011;319;48.764;9.174;2022-10-22T03:06:24;2.90;;;2.80;;
673;SDS011;319;48.764;9.174;2022-10-22T03:08:51;3.10;;;3.00;;
673;SDS011;319;48.764;9.174;2022-10-22T03:11:17;3.00;;;2.90;;
673;SDS011;319;48.764;9.174;2022-10-22T03:13:44;3.20;;;3.10;;
673;SDS011;319;48.764;9.174;2022-10-22T03:16:11;3.20;;;3.10;;
673;SDS011;319;48.764;9.174;2022-10-22T03:18:38;3.20;;;3.10;;
673;SDS011;319;48.764;9.174;2022-10-22T03:21:07;3.33;;;3.23;;
673;SDS011;319;48.764;9.174;2022-10-22T03:23:38;3.20;;;3.10;;
673;SDS011;319;48.764;9.174;2022-10-22T03:26:07;3.30;;;3.20;;
673;SDS011;319;48.764;9.174;2022-10-22T03:28:36;3.20;;;3.10;;
673;SDS011;319;48.764;9.174;2022-10-22T03:31:04;3.30;;;3.20;;
673;SDS011;319;48.764;9.174;2022-10-22T03:33:31;2.40;;;2.40;;
673;SDS011;319;48.764;9.174;2022-10-22T03:35:58;3.00;;;2.90;;
673;SDS011;319;48.764;9.174;2022-10-22T03:38:27;3.30;;;3.20;;
673;SDS011;319;48.764;9.174;2022-10-22T03:40:54;2.90;;;2.80;;
673;SDS011;319;48.764;9.174;2022-10-22T03:43:21;2.80;;;2.80;;
673;SDS011;319;48.764;9.174;2022-10-22T03:45:48;2.80;;;2.80;;
673;SDS011;319;48.764;9.174;2022-10-22T03:48:15;2.40;;;2.40;;
673;SDS011;319;48.764;9.174;2022-10-22T03:50:41;3.17;;;3.07;;
673;SDS011;319;48.764;9.174;2022-10-22T03:53:08;3.00;;;2.90;;
673;SDS011;319;48.764;9.174;2022-10-22T03:55:37;2.80;;;2.80;;
673;SDS011;319;48.764;9.174;2022-10-22T03:58:05;2.40;;;2.40;;
673;SDS011;319;48.764;9.174;2022-10-22T04:00:32;2.90;;;2.80;;
673;SDS011;319;48.764;9.174;2022-10-22T04:02:59;2.77;;;2.73;;
673;SDS011;319;48.764;9.174;2022-10-22T04:05:26;3.00;;;2.90;;
673;SDS011;319;48.764;9.174;2022-10-22T04:07:53;2.70;;;2.70;;
673;SDS011;319;48.764;9.174;2022-10-22T04:10:20;2.70;;;2.70;;
673;SDS011;319;48.764;9.174;2022-10-22T04:12:48;2.97;;;2.87;;
673;SDS011;319;48.764;9.174;2022-10-22T04:15:15;2.70;;;2.70;;
673;SDS011;319;48.764;9.174;2022-10-22T04:17:42;2.70;;;2.70;;
673;SDS011;319;48.764;9.174;2022-10-22T04:20:09;2.70;;;2.70;;
673;SDS011;319;48.764;9.174;2022-10-22T04:22:36;2.60;;;2.60;;
673;SDS011;319;48.764;9.174;2022-10-22T04:25:03;2.70;;;2.70;;
673;SDS011;319;48.764;9.174;2022-10-22T04:27:31;2.70;;;2.70;;
673;SDS011;319;48.764;9.174;2022-10-22T04:30:00;2.90;;;2.80;;
673;SDS011;319;48.764;9.174;2022-10-22T04:32:26;3.00;;;2.90;;
673;SDS011;319;48.764;9.174;2022-10-22T04:34:53;2.10;;;2.10;;
673;SDS011;319;48.764;9.174;2022-10-22T04:37:20;3.00;;;2.90;;
673;SDS011;319;48.764;9.174;2022-10-22T04:39:47;2.80;;;2.80;;
673;SDS011;319;48.764;9.174;2022-10-22T04:42:14;3.00;;;2.90;;
673;SDS011;319;48.764;9.174;2022-10-22T04:44:41;2.70;;;2.70;;
673;SDS011;319;48.764;9.174;2022-10-22T04:47:09;2.90;;;2.80;;
673;SDS011;319;48.764;9.174;2022-10-22T04:49:35;2.80;;;2.80;;
673;SDS011;319;48.764;9.174;2022-10-22T04:52:02;2.90;;;2.80;;
673;SDS011;319;48.764;9.174;2022-10-22T04:54:29;2.50;;;2.50;;
673;SDS011;319;48.764;9.174;2022-10-22T04:56:56;2.93;;;2.87;;
673;SDS011;319;48.764;9.174;2022-10-22T04:59:22;2.80;;;2.80;;
673;SDS011;319;48.764;9.174;2022-10-22T05:01:49;3.00;;;2.90;;
673;SDS011;319;48.764;9.174;2022-10-22T05:04:17;2.90;;;2.80;;
673;SDS011;319;48.764;9.174;2022-10-22T05:06:44;3.00;;;2.90;;
673;SDS011;319;48.764;9.174;2022-10-22T05:09:12;2.80;;;2.80;;
673;SDS011;319;48.764;9.174;2022-10-22T05:11:41;2.90;;;2.80;;
673;SDS011;319;48.764;9.174;2022-10-22T05:14:12;3.10;;;3.00;;
673;SDS011;319;48.764;9.174;2022-10-22T05:16:40;3.20;;;3.10;;
673;SDS011;319;48.764;9.174;2022-10-22T05:19:07;3.00;;;2.90;;
673;SDS011;319;48.764;9.174;2022-10-22T05:21:35;3.10;;;3.00;;
673;SDS011;319;48.764;9.174;2022-10-22T05:24:03;3.03;;;2.93;;
673;SDS011;319;48.764;9.174;2022-10-22T05:26:30;2.47;;;2.47;;
673;SDS011;319;48.764;9.174;2022-10-22T05:28:56;3.00;;;2.90;;
673;SDS011;319;48.764;9.174;2022-10-22T05:31:23;3.20;;;3.10;;
673;SDS011;319;48.764;9.174;2022-10-22T05:33:52;3.10;;;3.00;;
673;SDS011;319;48.764;9.174;2022-10-22T05:36:20;3.17;;;3.07;;
673;SDS011;319;48.764;9.174;2022-10-22T05:38:49;3.30;;;3.20;;
673;SDS011;319;48.764;9.174;2022-10-22T05:41:17;3.30;;;3.20;;
673;SDS011;319;48.764;9.174;2022-10-22T05:43:45;3.37;;;3.27;;
673;SDS011;319;48.764;9.174;2022-10-22T05:46:13;3.40;;;3.30;;
673;SDS011;319;48.764;9.174;2022-10-22T05:48:41;3.40;;;3.30;;
673;SDS011;319;48.764;9.174;2022-10-22T05:51:09;3.30;;;3.20;;
673;SDS011;319;48.764;9.174;2022-10-22T05:53:38;3.43;;;3.33;;
673;SDS011;319;48.764;9.174;2022-10-22T05:56:09;3.60;;;3.50;;
673;SDS011;319;48.764;9.174;2022-10-22T05:58:37;3.50;;;3.40;;
673;SDS011;319;48.764;9.174;2022-10-22T06:01:05;3.30;;;3.20;;
673;SDS011;319;48.764;9.174;2022-10-22T06:03:32;3.60;;;3.50;;
673;SDS011;319;48.764;9.174;2022-10-22T06:05:59;3.50;;;3.40;;
673;SDS011;319;48.764;9.174;2022-10-22T06:08:28;3.20;;;3.10;;
673;SDS011;319;48.764;9.174;2022-10-22T06:10:55;2.87;;;2.80;;
673;SDS011;319;48.764;9.174;2022-10-22T06:13:23;3.60;;;3.50;;
673;SDS011;319;48.764;9.174;2022-10-22T06:15:50;3.70;;;3.60;;
673;SDS011;319;48.764;9.174;2022-10-22T06:18:17;3.60;;;3.50;;
673;SDS011;319;48.764;9.174;2022-10-22T06:20:44;3.70;;;3.60;;
673;SDS011;319;48.764;9.174;2022-10-22T06:23:11;3.50;;;3.40;;
673;SDS011;319;48.764;9.174;2022-10-22T06:25:38;3.10;;;3.00;;
673;SDS011;319;48.764;9.174;2022-10-22T06:28:05;3.50;;;3.40;;
673;SDS011;319;48.764;9.174;2022-10-22T06:30:33;3.50;;;3.40;;
673;SDS011;319;48.764;9.174;2022-10-22T06:33:01;3.50;;;3.40;;
673;SDS011;319;48.764;9.174;2022-10-22T06:35:28;3.77;;;3.67;;
673;SDS011;319;48.764;9.174;2022-10-22T06:37:55;3.60;;;3.50;;
673;SDS011;319;48.764;9.174;2022-10-22T06:40:22;3.30;;;3.20;;
673;SDS011;319;48.764;9.174;2022-10-22T06:42:48;3.80;;;3.70;;
673;SDS011;319;48.764;9.174;2022-10-22T06:45:16;3.70;;;3.60;;
673;SDS011;319;48.764;9.174;2022-10-22T06:47:44;3.50;;;3.40;;
673;SDS011;319;48.764;9.174;2022-10-22T06:50:11;3.70;;;3.60;;
673;SDS011;319;48.764;9.174;2022-10-22T06:52:38;3.80;;;3.70;;
673;SDS011;319;48.764;9.174;2022-10-22T06:55:05;3.40;;;3.30;;
673;SDS011;319;48.764;9.174;2022-10-22T06:57:32;3.43;;;3.33;;
673;SDS011;319;48.764;9.174;2022-10-22T06:59:58;3.47;;;3.37;;
673;SDS011;319;48.764;9.174;2022-10-22T07:02:25;3.80;;;3.70;;
673;SDS011;319;48.764;9.174;2022-10-22T07:04:53;3.70;;;3.60;;
673;SDS011;319;48.764;9.174;2022-10-22T07:07:20;3.77;;;3.67;;
673;SDS011;319;48.764;9.174;2022-10-22T07:09:47;3.30;;;3.20;;
673;SDS011;319;48.764;9.174;2022-10-22T07:12:14;3.70;;;3.60;;
673;SDS011;319;48.764;9.174;2022-10-22T07:14:41;3.80;;;3.70;;
673;SDS011;319;48.764;9.174;2022-10-22T07:17:08;4.03;;;3.93;;
673;SDS011;319;48.764;9.174;2022-10-22T07:19:35;3.83;;;3.73;;
673;SDS011;319;48.764;9.174;2022-10-22T07:22:04;3.90;;;3.80;;
673;SDS011;319;48.764;9.174;2022-10-22T07:24:31;3.80;;;3.70;;
673;SDS011;319;48.764;9.174;2022-10-22T07:26:58;3.70;;;3.60;;
673;SDS011;319;48.764;9.174;2022-10-22T07:29:25;3.60;;;3.50;;
673;SDS011;319;48.764;9.174;2022-10-22T07:31:57;3.93;;;3.83;;
673;SDS011;319;48.764;9.174;2022-10-22T07:34:31;3.60;;;3.50;;
673;SDS011;319;48.764;9.174;2022-10-22T07:36:58;3.70;;;3.60;;
673;SDS011;319;48.764;9.174;2022-10-22T07:39:26;2.80;;;2.80;;
673;SDS011;319;48.764;9.174;2022-10-22T07:41:53;2.80;;;2.80;;
673;SDS011;319;48.764;9.174;2022-10-22T07:44:21;3.50;;;3.40;;
673;SDS011;319;48.764;9.174;2022-10-22T07:46:48;3.60;;;3.50;;
673;SDS011;319;48.764;9.174;2022-10-22T07:49:15;3.17;;;3.07;;
673;SDS011;319;48.764;9.174;2022-10-22T07:51:42;3.30;;;3.20;;
673;SDS011;319;48.764;9.174;2022-10-22T07:54:09;3.00;;;2.90;;
673;SDS011;319;48.764;9.174;2022-10-22T07:56:37;3.47;;;3.37;;
673;SDS011;319;48.764;9.174;2022-10-22T07:59:04;3.27;;;3.17;;
673;SDS011;319;48.764;9.174;2022-10-22T08:01:31;3.43;;;3.33;;
673;SDS011;319;48.764;9.174;2022-10-22T08:03:58;2.93;;;2.87;;
673;SDS011;319;48.764;9.174;2022-10-22T08:06:25;3.00;;;2.90;;
673;SDS011;319;48.764;9.174;2022-10-22T08:08:52;3.23;;;3.13;;
673;SDS011;319;48.764;9.174;2022-10-22T08:11:18;3.50;;;3.40;;
673;SDS011;319;48.764;9.174;2022-10-22T08:13:46;3.57;;;3.47;;
673;SDS011;319;48.764;9.174;2022-10-22T08:16:13;3.60;;;3.50;;
673;SDS011;319;48.764;9.174;2022-10-22T08:18:40;3.60;;;3.50;;
673;SDS011;319;48.764;9.174;2022-10-22T08:21:08;3.40;;;3.30;;
673;SDS011;319;48.764;9.174;2022-10-22T08:23:35;3.90;;;3.80;;
673;SDS011;319;48.764;9.174;2022-10-22T08:26:02;3.10;;;3.00;;
673;SDS011;319;48.764;9.174;2022-10-22T08:28:29;3.07;;;2.97;;
673;SDS011;319;48.764;9.174;2022-10-22T08:31:01;3.60;;;3.50;;
673;SDS011;319;48.764;9.174;2022-10-22T08:33:30;3.07;;;2.97;;
673;SDS011;319;48.764;9.174;2022-10-22T08:35:56;3.40;;;3.30;;
673;SDS011;319;48.764;9.174;2022-10-22T08:38:23;3.30;;;3.20;;
673;SDS011;319;48.764;9.174;2022-10-22T08:40:50;3.77;;;3.67;;
673;SDS011;319;48.764;9.174;2022-10-22T08:43:26;3.40;;;3.30;;
673;SDS011;319;48.764;9.174;2022-10-22T08:46:31;3.50;;;3.40;;
673;SDS011;319;48.764;9.174;2022-10-22T08:49:11;4.00;;;3.90;;
673;SDS011;319;48.764;9.174;2022-10-22T08:51:44;4.20;;;4.10;;
673;SDS011;319;48.764;9.174;2022-10-22T08:54:13;3.80;;;3.70;;
673;SDS011;319;48.764;9.174;2022-10-22T08:56:49;4.00;;;3.90;;
673;SDS011;319;48.764;9.174;2022-10-22T08:59:42;6.47;;;6.30;;
673;SDS011;319;48.764;9.174;2022-10-22T09:02:17;4.60;;;4.50;;
673;SDS011;319;48.764;9.174;2022-10-22T09:04:55;4.60;;;4.50;;
673;SDS011;319;48.764;9.174;2022-10-22T09:07:30;3.80;;;3.70;;
673;SDS011;319;48.764;9.174;2022-10-22T09:09:57;3.77;;;3.67;;
673;SDS011;319;48.764;9.174;2022-10-22T09:12:26;4.90;;;4.80;;
673;SDS011;319;48.764;9.174;2022-10-22T09:14:54;4.83;;;4.73;;
673;SDS011;319;48.764;9.174;2022-10-22T09:17:25;5.33;;;5.23;;
673;SDS011;319;48.764;9.174;2022-10-22T09:23:28;4.40;;;4.30;;
673;SDS011;319;48.764;9.174;2022-10-22T09:26:12;4.90;;;4.80;;
673;SDS011;319;48.764;9.174;2022-10-22T09:29:38;4.17;;;4.07;;
673;SDS011;319;48.764;9.174;2022-10-22T09:32:05;5.60;;;5.50;;
673;SDS011;319;48.764;9.174;2022-10-22T09:34:33;5.33;;;5.23;;
673;SDS011;319;48.764;9.174;2022-10-22T09:37:00;4.63;;;4.53;;
673;SDS011;319;48.764;9.174;2022-10-22T09:39:32;4.23;;;4.13;;
673;SDS011;319;48.764;9.174;2022-10-22T09:42:01;5.37;;;5.27;;
673;SDS011;319;48.764;9.174;2022-10-22T09:44:32;6.43;;;6.27;;
673;SDS011;319;48.764;9.174;2022-10-22T09:47:04;6.73;;;6.53;;
673;SDS011;319;48.764;9.174;2022-10-22T09:50:05;6.40;;;6.30;;
673;SDS011;319;48.764;9.174;2022-10-22T09:52:43;5.80;;;5.70;;
673;SDS011;319;48.764;9.174;2022-10-22T09:55:12;4.60;;;4.50;;
673;SDS011;319;48.764;9.174;2022-10-22T09:57:40;6.30;;;6.20;;
673;SDS011;319;48.764;9.174;2022-10-22T10:00:16;7.10;;;6.90;;
673;SDS011;319;48.764;9.174;2022-10-22T10:02:58;5.63;;;5.53;;
673;SDS011;319;48.764;9.174;2022-10-22T10:05:54;6.30;;;6.20;;
673;SDS011;319;48.764;9.174;2022-10-22T10:08:25;4.00;;;3.90;;
673;SDS011;319;48.764;9.174;2022-10-22T10:11:09;5.13;;;5.03;;
673;SDS011;319;48.764;9.174;2022-10-22T10:13:49;6.30;;;6.20;;
673;SDS011;319;48.764;9.174;2022-10-22T10:16:25;6.67;;;6.47;;
673;SDS011;319;48.764;9.174;2022-10-22T10:19:05;7.23;;;7.03;;
673;SDS011;319;48.764;9.174;2022-10-22T10:21:56;8.40;;;8.20;;
673;SDS011;319;48.764;9.174;2022-10-22T10:24:36;8.70;;;8.50;;
673;SDS011;319;48.764;9.174;2022-10-22T10:27:25;9.27;;;9.07;;
673;SDS011;319;48.764;9.174;2022-10-22T10:29:58;8.30;;;8.10;;
673;SDS011;319;48.764;9.174;2022-10-22T10:32:31;8.10;;;7.90;;
673;SDS011;319;48.764;9.174;2022-10-22T10:35:19;7.00;;;6.80;;
673;SDS011;319;48.764;9.174;2022-10-22T10:37:52;11.90;;;11.60;;
673;SDS011;319;48.764;9.174;2022-10-22T10:40:32;12.17;;;11.87;;
673;SDS011;319;48.764;9.174;2022-10-22T10:43:06;6.33;;;6.23;;
673;SDS011;319;48.764;9.174;2022-10-22T10:45:37;6.50;;;6.33;;
673;SDS011;319;48.764;9.174;2022-10-22T10:48:14;5.30;;;5.20;;
673;SDS011;319;48.764;9.174;2022-10-22T10:51:03;5.90;;;5.80;;
673;SDS011;319;48.764;9.174;2022-10-22T10:53:44;5.57;;;5.47;;
673;SDS011;319;48.764;9.174;2022-10-22T10:56:27;6.20;;;6.10;;
673;SDS011;319;48.764;9.174;2022-10-22T10:59:02;4.97;;;4.87;;
673;SDS011;319;48.764;9.174;2022-10-22T11:01:41;6.80;;;6.60;;
673;SDS011;319;48.764;9.174;2022-10-22T11:04:23;8.43;;;8.23;;
673;SDS011;319;48.764;9.174;2022-10-22T11:07:01;13.80;;;13.40;;
673;SDS011;319;48.764;9.174;2022-10-22T11:09:37;9.30;;;9.10;;
673;SDS011;319;48.764;9.174;2022-10-22T11:12:09;15.70;;;15.27;;
673;SDS011;319;48.764;9.174;2022-10-22T11:14:51;14.93;;;14.53;;
673;SDS011;319;48.764;9.174;2022-10-22T11:17:35;12.97;;;12.63;;
673;SDS011;319;48.764;9.174;2022-10-22T11:20:11;7.30;;;7.10;;
673;SDS011;319;48.764;9.174;2022-10-22T11:22:44;11.10;;;10.80;;
673;SDS011;319;48.764;9.174;2022-10-22T11:25:17;15.93;;;15.50;;
673;SDS011;319;48.764;9.174;2022-10-22T11:27:49;7.70;;;7.50;;
673;SDS011;319;48.764;9.174;2022-10-22T11:30:20;7.50;;;7.30;;
673;SDS011;319;48.764;9.174;2022-10-22T11:32:52;7.63;;;7.43;;
673;SDS011;319;48.764;9.174;2022-10-22T11:35:23;7.87;;;7.67;;
673;SDS011;319;48.764;9.174;2022-10-22T11:37:53;7.50;;;7.30;;
673;SDS011;319;48.764;9.174;2022-10-22T11:40:30;5.60;;;5.50;;
673;SDS011;319;48.764;9.174;2022-10-22T11:43:02;5.83;;;5.73;;
673;SDS011;319;48.764;9.174;2022-10-22T11:45:33;12.83;;;12.53;;
673;SDS011;319;48.764;9.174;2022-10-22T11:48:05;13.00;;;12.70;;
673;SDS011;319;48.764;9.174;2022-10-22T11:50:43;12.57;;;12.27;;
673;SDS011;319;48.764;9.174;2022-10-22T11:53:18;15.03;;;14.60;;
673;SDS011;319;48.764;9.174;2022-10-22T11:55:53;0.90;;;0.90;;
673;SDS011;319;48.764;9.174;2022-10-22T11:58:34;13.10;;;12.80;;
673;SDS011;319;48.764;9.174;2022-10-22T12:01:17;10.90;;;10.60;;
673;SDS011;319;48.764;9.174;2022-10-22T12:03:49;9.53;;;9.33;;
673;SDS011;319;48.764;9.174;2022-10-22T12:06:18;13.90;;;13.50;;
673;SDS011;319;48.764;9.174;2022-10-22T12:08:51;11.93;;;11.63;;
673;SDS011;319;48.764;9.174;2022-10-22T12:11:24;1.20;;;1.20;;
673;SDS011;319;48.764;9.174;2022-10-22T12:13:59;9.70;;;9.47;;
673;SDS011;319;48.764;9.174;2022-10-22T12:16:34;16.97;;;16.47;;
673;SDS011;319;48.764;9.174;2022-10-22T12:19:03;11.33;;;11.03;;
673;SDS011;319;48.764;9.174;2022-10-22T12:21:37;20.87;;;20.27;;
673;SDS011;319;48.764;9.174;2022-10-22T12:24:06;17.10;;;16.60;;
673;SDS011;319;48.764;9.174;2022-10-22T12:26:39;21.67;;;21.07;;
673;SDS011;319;48.764;9.174;2022-10-22T12:29:08;10.90;;;10.60;;
673;SDS011;319;48.764;9.174;2022-10-22T12:31:37;9.10;;;8.87;;
673;SDS011;319;48.764;9.174;2022-10-22T12:34:05;21.40;;;20.80;;
673;SDS011;319;48.764;9.174;2022-10-22T12:36:32;19.63;;;19.03;;
673;SDS011;319;48.764;9.174;2022-10-22T12:39:00;15.70;;;15.30;;
673;SDS011;319;48.764;9.174;2022-10-22T12:41:29;7.40;;;7.20;;
673;SDS011;319;48.764;9.174;2022-10-22T12:43:59;13.27;;;12.87;;
673;SDS011;319;48.764;9.174;2022-10-22T12:46:27;7.70;;;7.50;;
673;SDS011;319;48.764;9.174;2022-10-22T12:48:57;12.40;;;12.10;;
673;SDS011;319;48.764;9.174;2022-10-22T12:51:25;21.17;;;20.57;;
673;SDS011;319;48.764;9.174;2022-10-22T12:53:54;21.57;;;20.97;;
673;SDS011;319;48.764;9.174;2022-10-22T12:56:24;18.97;;;18.47;;
673;SDS011;319;48.764;9.174;2022-10-22T12:58:54;20.90;;;20.30;;
673;SDS011;319;48.764;9.174;2022-10-22T13:01:26;21.40;;;20.80;;
673;SDS011;319;48.764;9.174;2022-10-22T13:04:03;19.90;;;19.30;;
673;SDS011;319;48.764;9.174;2022-10-22T13:06:33;18.60;;;18.10;;
673;SDS011;319;48.764;9.174;2022-10-22T13:09:11;12.17;;;11.87;;
673;SDS011;319;48.764;9.174;2022-10-22T13:11:47;21.90;;;21.30;;
673;SDS011;319;48.764;9.174;2022-10-22T13:14:18;21.23;;;20.63;;
673;SDS011;319;48.764;9.174;2022-10-22T13:17:04;21.67;;;21.07;;
673;SDS011;319;48.764;9.174;2022-10-22T13:19:37;22.30;;;21.70;;
673;SDS011;319;48.764;9.174;2022-10-22T13:24:56;16.93;;;16.43;;
673;SDS011;319;48.764;9.174;2022-10-22T13:27:24;17.10;;;16.60;;
673;SDS011;319;48.764;9.174;2022-10-22T13:29:52;21.63;;;21.03;;
673;SDS011;319;48.764;9.174;2022-10-22T13:32:25;20.80;;;20.20;;
673;SDS011;319;48.764;9.174;2022-10-22T13:34:55;19.70;;;19.10;;
673;SDS011;319;48.764;9.174;2022-10-22T13:37:23;19.97;;;19.37;;
673;SDS011;319;48.764;9.174;2022-10-22T13:39:50;22.07;;;21.47;;
673;SDS011;319;48.764;9.174;2022-10-22T13:42:17;21.00;;;20.40;;
673;SDS011;319;48.764;9.174;2022-10-22T13:44:44;18.67;;;18.17;;
673;SDS011;319;48.764;9.174;2022-10-22T13:47:12;17.63;;;17.13;;
673;SDS011;319;48.764;9.174;2022-10-22T13:49:50;17.00;;;16.50;;
673;SDS011;319;48.764;9.174;2022-10-22T13:52:30;21.07;;;20.47;;
673;SDS011;319;48.764;9.174;2022-10-22T13:55:00;19.87;;;19.27;;
673;SDS011;319;48.764;9.174;2022-10-22T13:57:34;19.90;;;19.30;;
673;SDS011;319;48.764;9.174;2022-10-22T14:00:01;19.47;;;18.97;;
673;SDS011;319;48.764;9.174;2022-10-22T14:02:29;19.70;;;19.10;;
673;SDS011;319;48.764;9.174;2022-10-22T14:04:58;17.60;;;17.10;;
673;SDS011;319;48.764;9.174;2022-10-22T14:07:27;16.83;;;16.33;;
673;SDS011;319;48.764;9.174;2022-10-22T14:09:54;6.93;;;6.73;;
673;SDS011;319;48.764;9.174;2022-10-22T14:12:21;10.50;;;10.20;;
673;SDS011;319;48.764;9.174;2022-10-22T14:14:49;9.33;;;9.13;;
673;SDS011;319;48.764;9.174;2022-10-22T14:17:16;14.10;;;13.70;;
673;SDS011;319;48.764;9.174;2022-10-22T14:19:43;15.77;;;15.37;;
673;SDS011;319;48.764;9.174;2022-10-22T14:22:14;17.70;;;17.20;;
673;SDS011;319;48.764;9.174;2022-10-22T14:24:42;16.27;;;15.80;;
673;SDS011;319;48.764;9.174;2022-10-22T14:27:10;15.57;;;15.17;;
673;SDS011;319;48.764;9.174;2022-10-22T14:29:37;10.37;;;10.07;;
673;SDS011;319;48.764;9.174;2022-10-22T14:32:05;15.90;;;15.50;;
673;SDS011;319;48.764;9.174;2022-10-22T14:34:37;14.93;;;14.53;;
673;SDS011;319;48.764;9.174;2022-10-22T14:37:03;14.77;;;14.37;;
673;SDS011;319;48.764;9.174;2022-10-22T14:39:32;14.10;;;13.70;;
673;SDS011;319;48.764;9.174;2022-10-22T14:41:59;14.17;;;13.77;;
673;SDS011;319;48.764;9.174;2022-10-22T14:44:26;12.80;;;12.50;;
673;SDS011;319;48.764;9.174;2022-10-22T14:46:52;13.73;;;13.33;;
673;SDS011;319;48.764;9.174;2022-10-22T14:49:20;10.80;;;10.50;;
673;SDS011;319;48.764;9.174;2022-10-22T14:51:47;12.47;;;12.17;;
673;SDS011;319;48.764;9.174;2022-10-22T14:54:13;13.17;;;12.77;;
673;SDS011;319;48.764;9.174;2022-10-22T14:56:42;11.00;;;10.70;;
673;SDS011;319;48.764;9.174;2022-10-22T14:59:09;13.13;;;12.73;;
673;SDS011;319;48.764;9.174;2022-10-22T15:01:36;13.70;;;13.30;;
673;SDS011;319;48.764;9.174;2022-10-22T15:04:06;12.63;;;12.33;;
673;SDS011;319;48.764;9.174;2022-10-22T15:06:32;12.87;;;12.57;;
673;SDS011;319;48.764;9.174;2022-10-22T15:08:59;12.40;;;12.10;;
673;SDS011;319;48.764;9.174;2022-10-22T15:11:26;14.57;;;14.17;;
673;SDS011;319;48.764;9.174;2022-10-22T15:13:54;14.80;;;14.40;;
673;SDS011;319;48.764;9.174;2022-10-22T15:16:21;14.20;;;13.80;;
673;SDS011;319;48.764;9.174;2022-10-22T15:18:48;12.27;;;11.97;;
673;SDS011;319;48.764;9.174;2022-10-22T15:21:17;15.97;;;15.57;;
673;SDS011;319;48.764;9.174;2022-10-22T15:23:45;13.60;;;13.20;;
673;SDS011;319;48.764;9.174;2022-10-22T15:26:13;15.83;;;15.43;;
673;SDS011;319;48.764;9.174;2022-10-22T15:28:40;14.20;;;13.80;;
673;SDS011;319;48.764;9.174;2022-10-22T15:31:11;14.30;;;13.90;;
673;SDS011;319;48.764;9.174;2022-10-22T15:33:41;16.20;;;15.80;;
673;SDS011;319;48.764;9.174;2022-10-22T15:36:08;17.00;;;16.50;;
673;SDS011;319;48.764;9.174;2022-10-22T15:38:37;16.23;;;15.80;;
673;SDS011;319;48.764;9.174;2022-10-22T15:41:04;12.90;;;12.60;;
673;SDS011;319;48.764;9.174;2022-10-22T15:43:34;14.60;;;14.20;;
673;SDS011;319;48.764;9.174;2022-10-22T15:46:08;4.00;;;3.90;;
673;SDS011;319;48.764;9.174;2022-10-22T15:48:38;8.83;;;8.57;;
673;SDS011;319;48.764;9.174;2022-10-22T15:51:08;5.40;;;5.30;;
673;SDS011;319;48.764;9.174;2022-10-22T15:53:36;21.20;;;20.60;;
673;SDS011;319;48.764;9.174;2022-10-22T15:56:04;17.80;;;17.30;;
673;SDS011;319;48.764;9.174;2022-10-22T15:58:31;6.30;;;6.13;;
673;SDS011;319;48.764;9.174;2022-10-22T16:01:04;5.87;;;5.77;;
673;SDS011;319;48.764;9.174;2022-10-22T16:03:33;7.80;;;7.60;;
673;SDS011;319;48.764;9.174;2022-10-22T16:06:01;4.77;;;4.67;;